sensor_id;sensor_type;location;lat;lon;timestamp;P1;durP1;ratioP1;P2;durP2;ratioP2
9906;SDS011;4992;51.628;6.664;2023-06-22T00:00:27;13.30;;;8.43;;
9906;SDS011;4992;51.628;6.664;2023-06-22T00:02:53;10.07;;;8.15;;
9906;SDS011;4992;51.628;6.664;2023-06-22T00:05:19;10.55;;;9.52;;
9906;SDS011;4992;51.628;6.664;2023-06-22T00:07:45;12.05;;;8.80;;
9906;SDS011;4992;51.628;6.664;2023-06-22T00:10:11;9.57;;;8.75;;
9906;SDS011;4992;51.628;6.664;2023-06-22T00:12:37;10.60;;;8.95;;
9906;SDS011;4992;51.628;6.664;2023-06-22T00:15:03;10.57;;;9.48;;
9906;SDS011;4992;51.628;6.664;2023-06-22T00:17:29;10.68;;;9.68;;
9906;SDS011;4992;51.628;6.664;2023-06-22T00:19:55;11.05;;;9.95;;
9906;SDS011;4992;51.628;6.664;2023-06-22T00:22:23;9.55;;;8.65;;
9906;SDS011;4992;51.628;6.664;2023-06-22T00:24:56;10.13;;;9.23;;
9906;SDS011;4992;51.628;6.664;2023-06-22T00:27:22;11.38;;;10.15;;
9906;SDS011;4992;51.628;6.664;2023-06-22T00:29:48;11.43;;;9.57;;
9906;SDS011;4992;51.628;6.664;2023-06-22T00:32:14;11.57;;;9.90;;
9906;SDS011;4992;51.628;6.664;2023-06-22T00:34:41;11.15;;;9.98;;
9906;SDS011;4992;51.628;6.664;2023-06-22T00:37:06;11.30;;;10.20;;
9906;SDS011;4992;51.628;6.664;2023-06-22T00:39:32;11.15;;;10.05;;
9906;SDS011;4992;51.628;6.664;2023-06-22T00:41:59;12.50;;;10.77;;
9906;SDS011;4992;51.628;6.664;2023-06-22T00:44:25;11.48;;;9.98;;
9906;SDS011;4992;51.628;6.664;2023-06-22T00:46:51;12.43;;;10.73;;
9906;SDS011;4992;51.628;6.664;2023-06-22T00:49:17;11.68;;;10.48;;
9906;SDS011;4992;51.628;6.664;2023-06-22T00:51:43;12.90;;;11.63;;
9906;SDS011;4992;51.628;6.664;2023-06-22T00:54:10;12.10;;;10.95;;
9906;SDS011;4992;51.628;6.664;2023-06-22T00:56:38;12.13;;;10.93;;
9906;SDS011;4992;51.628;6.664;2023-06-22T00:59:04;12.68;;;11.48;;
9906;SDS011;4992;51.628;6.664;2023-06-22T01:01:30;12.45;;;11.25;;
9906;SDS011;4992;51.628;6.664;2023-06-22T01:03:57;12.85;;;11.65;;
9906;SDS011;4992;51.628;6.664;2023-06-22T01:06:26;13.43;;;12.02;;
9906;SDS011;4992;51.628;6.664;2023-06-22T01:09:00;12.73;;;11.52;;
9906;SDS011;4992;51.628;6.664;2023-06-22T01:11:32;13.70;;;11.63;;
9906;SDS011;4992;51.628;6.664;2023-06-22T01:16:57;13.13;;;11.95;;
9906;SDS011;4992;51.628;6.664;2023-06-22T01:22:09;12.55;;;11.35;;
9906;SDS011;4992;51.628;6.664;2023-06-22T01:25:20;13.95;;;12.55;;
9906;SDS011;4992;51.628;6.664;2023-06-22T01:29:55;14.00;;;12.70;;
9906;SDS011;4992;51.628;6.664;2023-06-22T01:32:29;13.05;;;11.85;;
9906;SDS011;4992;51.628;6.664;2023-06-22T01:34:56;13.38;;;12.15;;
9906;SDS011;4992;51.628;6.664;2023-06-22T01:37:26;12.65;;;11.45;;
9906;SDS011;4992;51.628;6.664;2023-06-22T01:39:52;13.25;;;11.93;;
9906;SDS011;4992;51.628;6.664;2023-06-22T01:42:19;13.07;;;11.75;;
9906;SDS011;4992;51.628;6.664;2023-06-22T01:44:45;13.65;;;12.35;;
9906;SDS011;4992;51.628;6.664;2023-06-22T01:50:15;12.45;;;11.35;;
9906;SDS011;4992;51.628;6.664;2023-06-22T01:52:41;13.82;;;11.77;;
9906;SDS011;4992;51.628;6.664;2023-06-22T01:55:07;13.23;;;11.93;;
9906;SDS011;4992;51.628;6.664;2023-06-22T01:57:33;13.85;;;12.50;;
9906;SDS011;4992;51.628;6.664;2023-06-22T02:00:03;14.30;;;12.45;;
9906;SDS011;4992;51.628;6.664;2023-06-22T02:02:42;13.43;;;12.20;;
9906;SDS011;4992;51.628;6.664;2023-06-22T02:05:09;15.85;;;13.07;;
9906;SDS011;4992;51.628;6.664;2023-06-22T02:07:41;14.77;;;13.38;;
9906;SDS011;4992;51.628;6.664;2023-06-22T02:10:07;14.70;;;13.30;;
9906;SDS011;4992;51.628;6.664;2023-06-22T02:12:34;14.65;;;13.27;;
9906;SDS011;4992;51.628;6.664;2023-06-22T02:15:00;13.98;;;12.75;;
9906;SDS011;4992;51.628;6.664;2023-06-22T02:17:27;14.65;;;13.38;;
9906;SDS011;4992;51.628;6.664;2023-06-22T02:19:53;14.68;;;13.38;;
9906;SDS011;4992;51.628;6.664;2023-06-22T02:22:19;14.98;;;13.57;;
9906;SDS011;4992;51.628;6.664;2023-06-22T02:24:45;15.38;;;13.77;;
9906;SDS011;4992;51.628;6.664;2023-06-22T02:27:11;15.32;;;13.85;;
9906;SDS011;4992;51.628;6.664;2023-06-22T02:29:37;14.77;;;13.27;;
9906;SDS011;4992;51.628;6.664;2023-06-22T02:32:03;14.60;;;13.20;;
9906;SDS011;4992;51.628;6.664;2023-06-22T02:34:29;16.25;;;13.75;;
9906;SDS011;4992;51.628;6.664;2023-06-22T02:36:55;16.05;;;14.35;;
9906;SDS011;4992;51.628;6.664;2023-06-22T02:39:22;15.10;;;13.70;;
9906;SDS011;4992;51.628;6.664;2023-06-22T02:41:48;15.20;;;13.77;;
9906;SDS011;4992;51.628;6.664;2023-06-22T02:44:15;15.40;;;13.80;;
9906;SDS011;4992;51.628;6.664;2023-06-22T02:46:41;16.23;;;14.63;;
9906;SDS011;4992;51.628;6.664;2023-06-22T02:49:07;16.17;;;14.57;;
9906;SDS011;4992;51.628;6.664;2023-06-22T02:51:33;16.10;;;14.30;;
9906;SDS011;4992;51.628;6.664;2023-06-22T02:53:59;16.23;;;14.73;;
9906;SDS011;4992;51.628;6.664;2023-06-22T02:56:25;15.45;;;14.05;;
9906;SDS011;4992;51.628;6.664;2023-06-22T02:58:51;15.00;;;13.57;;
9906;SDS011;4992;51.628;6.664;2023-06-22T03:01:17;16.95;;;14.25;;
9906;SDS011;4992;51.628;6.664;2023-06-22T03:03:48;16.65;;;14.95;;
9906;SDS011;4992;51.628;6.664;2023-06-22T03:06:14;16.55;;;14.90;;
9906;SDS011;4992;51.628;6.664;2023-06-22T03:08:40;16.73;;;14.90;;
9906;SDS011;4992;51.628;6.664;2023-06-22T03:11:06;16.92;;;15.23;;
9906;SDS011;4992;51.628;6.664;2023-06-22T03:13:33;16.75;;;15.18;;
9906;SDS011;4992;51.628;6.664;2023-06-22T03:15:59;16.25;;;14.57;;
9906;SDS011;4992;51.628;6.664;2023-06-22T03:18:25;16.73;;;14.85;;
9906;SDS011;4992;51.628;6.664;2023-06-22T03:20:51;16.50;;;14.93;;
9906;SDS011;4992;51.628;6.664;2023-06-22T03:23:16;16.38;;;14.77;;
9906;SDS011;4992;51.628;6.664;2023-06-22T03:25:42;17.77;;;15.85;;
9906;SDS011;4992;51.628;6.664;2023-06-22T03:28:09;16.95;;;15.15;;
9906;SDS011;4992;51.628;6.664;2023-06-22T03:30:35;17.35;;;15.60;;
9906;SDS011;4992;51.628;6.664;2023-06-22T03:33:01;17.98;;;15.50;;
9906;SDS011;4992;51.628;6.664;2023-06-22T03:35:27;17.05;;;15.25;;
9906;SDS011;4992;51.628;6.664;2023-06-22T03:37:53;17.27;;;15.52;;
9906;SDS011;4992;51.628;6.664;2023-06-22T03:40:19;17.98;;;16.38;;
9906;SDS011;4992;51.628;6.664;2023-06-22T03:42:45;18.15;;;16.33;;
9906;SDS011;4992;51.628;6.664;2023-06-22T03:45:11;16.95;;;15.27;;
9906;SDS011;4992;51.628;6.664;2023-06-22T03:47:37;18.27;;;16.33;;
9906;SDS011;4992;51.628;6.664;2023-06-22T03:50:04;18.23;;;16.42;;
9906;SDS011;4992;51.628;6.664;2023-06-22T03:52:30;18.27;;;16.58;;
9906;SDS011;4992;51.628;6.664;2023-06-22T03:54:57;18.98;;;17.02;;
9906;SDS011;4992;51.628;6.664;2023-06-22T03:57:23;19.10;;;17.10;;
9906;SDS011;4992;51.628;6.664;2023-06-22T03:59:49;19.17;;;17.23;;
9906;SDS011;4992;51.628;6.664;2023-06-22T04:02:15;19.00;;;17.30;;
9906;SDS011;4992;51.628;6.664;2023-06-22T04:04:41;18.40;;;16.52;;
9906;SDS011;4992;51.628;6.664;2023-06-22T04:07:07;19.27;;;17.48;;
9906;SDS011;4992;51.628;6.664;2023-06-22T04:09:33;19.40;;;17.65;;
9906;SDS011;4992;51.628;6.664;2023-06-22T04:11:59;18.58;;;16.88;;
9906;SDS011;4992;51.628;6.664;2023-06-22T04:14:25;18.95;;;17.10;;
9906;SDS011;4992;51.628;6.664;2023-06-22T04:16:51;18.88;;;16.88;;
9906;SDS011;4992;51.628;6.664;2023-06-22T04:19:17;19.27;;;17.48;;
9906;SDS011;4992;51.628;6.664;2023-06-22T04:21:43;18.90;;;17.15;;
9906;SDS011;4992;51.628;6.664;2023-06-22T04:24:10;19.50;;;17.65;;
9906;SDS011;4992;51.628;6.664;2023-06-22T04:26:36;19.10;;;17.42;;
9906;SDS011;4992;51.628;6.664;2023-06-22T04:29:06;18.77;;;16.90;;
9906;SDS011;4992;51.628;6.664;2023-06-22T04:31:33;22.75;;;17.33;;
9906;SDS011;4992;51.628;6.664;2023-06-22T04:34:02;18.63;;;16.83;;
9906;SDS011;4992;51.628;6.664;2023-06-22T04:36:38;18.42;;;16.58;;
9906;SDS011;4992;51.628;6.664;2023-06-22T04:39:05;17.98;;;16.38;;
9906;SDS011;4992;51.628;6.664;2023-06-22T04:41:32;18.27;;;16.63;;
9906;SDS011;4992;51.628;6.664;2023-06-22T04:44:07;17.60;;;15.77;;
9906;SDS011;4992;51.628;6.664;2023-06-22T04:46:33;19.25;;;17.27;;
9906;SDS011;4992;51.628;6.664;2023-06-22T04:49:06;18.83;;;17.02;;
9906;SDS011;4992;51.628;6.664;2023-06-22T04:51:40;18.50;;;16.70;;
9906;SDS011;4992;51.628;6.664;2023-06-22T04:54:07;18.63;;;16.70;;
9906;SDS011;4992;51.628;6.664;2023-06-22T04:56:33;18.52;;;16.63;;
9906;SDS011;4992;51.628;6.664;2023-06-22T04:58:59;18.65;;;16.75;;
9906;SDS011;4992;51.628;6.664;2023-06-22T05:01:25;21.52;;;17.25;;
9906;SDS011;4992;51.628;6.664;2023-06-22T05:03:51;17.98;;;16.27;;
9906;SDS011;4992;51.628;6.664;2023-06-22T05:06:22;18.90;;;17.17;;
9906;SDS011;4992;51.628;6.664;2023-06-22T05:08:52;19.00;;;17.08;;
9906;SDS011;4992;51.628;6.664;2023-06-22T05:11:22;20.08;;;16.30;;
9906;SDS011;4992;51.628;6.664;2023-06-22T05:13:48;19.20;;;17.02;;
9906;SDS011;4992;51.628;6.664;2023-06-22T05:16:14;17.48;;;15.75;;
9906;SDS011;4992;51.628;6.664;2023-06-22T05:18:40;22.60;;;16.10;;
9906;SDS011;4992;51.628;6.664;2023-06-22T05:21:06;17.25;;;15.43;;
9906;SDS011;4992;51.628;6.664;2023-06-22T05:23:33;18.40;;;16.63;;
9906;SDS011;4992;51.628;6.664;2023-06-22T05:25:59;18.15;;;16.23;;
9906;SDS011;4992;51.628;6.664;2023-06-22T05:28:25;18.02;;;16.23;;
9906;SDS011;4992;51.628;6.664;2023-06-22T05:30:51;18.10;;;16.27;;
9906;SDS011;4992;51.628;6.664;2023-06-22T05:33:17;18.58;;;16.50;;
9906;SDS011;4992;51.628;6.664;2023-06-22T05:35:42;18.80;;;16.77;;
9906;SDS011;4992;51.628;6.664;2023-06-22T05:38:08;17.35;;;15.50;;
9906;SDS011;4992;51.628;6.664;2023-06-22T05:40:34;17.42;;;15.73;;
9906;SDS011;4992;51.628;6.664;2023-06-22T05:43:00;17.63;;;16.10;;
9906;SDS011;4992;51.628;6.664;2023-06-22T05:45:26;17.90;;;16.00;;
9906;SDS011;4992;51.628;6.664;2023-06-22T05:47:52;16.05;;;14.43;;
9906;SDS011;4992;51.628;6.664;2023-06-22T05:50:18;17.40;;;15.65;;
9906;SDS011;4992;51.628;6.664;2023-06-22T05:52:44;19.48;;;14.50;;
9906;SDS011;4992;51.628;6.664;2023-06-22T05:55:10;16.75;;;15.05;;
9906;SDS011;4992;51.628;6.664;2023-06-22T05:57:36;16.98;;;15.30;;
9906;SDS011;4992;51.628;6.664;2023-06-22T06:00:02;17.25;;;15.50;;
9906;SDS011;4992;51.628;6.664;2023-06-22T06:02:31;16.08;;;14.35;;
9906;SDS011;4992;51.628;6.664;2023-06-22T06:04:58;17.60;;;15.75;;
9906;SDS011;4992;51.628;6.664;2023-06-22T06:07:24;17.05;;;15.27;;
9906;SDS011;4992;51.628;6.664;2023-06-22T06:09:51;16.38;;;14.88;;
9906;SDS011;4992;51.628;6.664;2023-06-22T06:12:17;17.65;;;15.98;;
9906;SDS011;4992;51.628;6.664;2023-06-22T06:14:43;16.08;;;14.48;;
9906;SDS011;4992;51.628;6.664;2023-06-22T06:17:09;15.60;;;14.05;;
9906;SDS011;4992;51.628;6.664;2023-06-22T06:19:35;16.10;;;14.35;;
9906;SDS011;4992;51.628;6.664;2023-06-22T06:22:01;16.10;;;14.18;;
9906;SDS011;4992;51.628;6.664;2023-06-22T06:24:27;18.83;;;15.45;;
9906;SDS011;4992;51.628;6.664;2023-06-22T06:26:53;17.58;;;15.82;;
9906;SDS011;4992;51.628;6.664;2023-06-22T06:29:19;16.50;;;14.63;;
9906;SDS011;4992;51.628;6.664;2023-06-22T06:31:44;18.35;;;15.48;;
9906;SDS011;4992;51.628;6.664;2023-06-22T06:37:14;15.95;;;14.57;;
9906;SDS011;4992;51.628;6.664;2023-06-22T06:39:40;17.30;;;15.63;;
9906;SDS011;4992;51.628;6.664;2023-06-22T06:42:06;17.75;;;15.90;;
9906;SDS011;4992;51.628;6.664;2023-06-22T06:44:32;18.15;;;16.55;;
9906;SDS011;4992;51.628;6.664;2023-06-22T06:46:58;17.05;;;15.65;;
9906;SDS011;4992;51.628;6.664;2023-06-22T06:49:24;17.30;;;15.70;;
9906;SDS011;4992;51.628;6.664;2023-06-22T06:51:50;17.17;;;15.63;;
9906;SDS011;4992;51.628;6.664;2023-06-22T06:54:17;17.88;;;16.10;;
9906;SDS011;4992;51.628;6.664;2023-06-22T06:56:45;17.55;;;15.90;;
9906;SDS011;4992;51.628;6.664;2023-06-22T06:59:13;16.23;;;14.52;;
9906;SDS011;4992;51.628;6.664;2023-06-22T07:01:39;17.50;;;15.70;;
9906;SDS011;4992;51.628;6.664;2023-06-22T07:04:04;21.63;;;17.10;;
9906;SDS011;4992;51.628;6.664;2023-06-22T07:06:30;18.27;;;16.38;;
9906;SDS011;4992;51.628;6.664;2023-06-22T07:08:58;22.27;;;16.25;;
9906;SDS011;4992;51.628;6.664;2023-06-22T07:14:27;20.45;;;16.95;;
9906;SDS011;4992;51.628;6.664;2023-06-22T07:16:53;22.58;;;17.83;;
9906;SDS011;4992;51.628;6.664;2023-06-22T07:22:23;18.52;;;16.77;;
9906;SDS011;4992;51.628;6.664;2023-06-22T07:24:49;17.65;;;15.82;;
9906;SDS011;4992;51.628;6.664;2023-06-22T07:27:15;17.42;;;15.88;;
9906;SDS011;4992;51.628;6.664;2023-06-22T07:32:47;18.98;;;17.30;;
9906;SDS011;4992;51.628;6.664;2023-06-22T07:35:13;17.15;;;15.68;;
9906;SDS011;4992;51.628;6.664;2023-06-22T07:40:42;17.35;;;15.60;;
9906;SDS011;4992;51.628;6.664;2023-06-22T07:43:09;16.63;;;15.07;;
9906;SDS011;4992;51.628;6.664;2023-06-22T07:45:35;16.88;;;15.13;;
9906;SDS011;4992;51.628;6.664;2023-06-22T07:48:01;16.70;;;14.95;;
9906;SDS011;4992;51.628;6.664;2023-06-22T07:50:27;16.13;;;14.63;;
9906;SDS011;4992;51.628;6.664;2023-06-22T07:52:53;17.25;;;14.90;;
9906;SDS011;4992;51.628;6.664;2023-06-22T07:55:19;16.92;;;15.43;;
9906;SDS011;4992;51.628;6.664;2023-06-22T08:00:40;16.35;;;14.73;;
9906;SDS011;4992;51.628;6.664;2023-06-22T08:03:06;16.65;;;15.02;;
9906;SDS011;4992;51.628;6.664;2023-06-22T08:05:32;18.08;;;15.68;;
9906;SDS011;4992;51.628;6.664;2023-06-22T08:07:58;17.23;;;15.43;;
9906;SDS011;4992;51.628;6.664;2023-06-22T08:10:39;17.38;;;15.57;;
9906;SDS011;4992;51.628;6.664;2023-06-22T08:13:06;16.45;;;14.95;;
9906;SDS011;4992;51.628;6.664;2023-06-22T08:15:32;16.88;;;14.95;;
9906;SDS011;4992;51.628;6.664;2023-06-22T08:17:58;15.88;;;14.27;;
9906;SDS011;4992;51.628;6.664;2023-06-22T08:20:25;15.00;;;13.50;;
9906;SDS011;4992;51.628;6.664;2023-06-22T08:22:52;15.15;;;13.38;;
9906;SDS011;4992;51.628;6.664;2023-06-22T08:25:19;15.05;;;13.70;;
9906;SDS011;4992;51.628;6.664;2023-06-22T08:27:45;15.45;;;14.00;;
9906;SDS011;4992;51.628;6.664;2023-06-22T08:30:12;15.05;;;13.75;;
9906;SDS011;4992;51.628;6.664;2023-06-22T08:32:38;15.40;;;13.90;;
9906;SDS011;4992;51.628;6.664;2023-06-22T08:35:04;15.45;;;13.95;;
9906;SDS011;4992;51.628;6.664;2023-06-22T08:37:33;14.50;;;13.10;;
9906;SDS011;4992;51.628;6.664;2023-06-22T08:40:00;14.02;;;12.77;;
9906;SDS011;4992;51.628;6.664;2023-06-22T08:42:26;15.10;;;13.57;;
9906;SDS011;4992;51.628;6.664;2023-06-22T08:44:52;14.80;;;13.38;;
9906;SDS011;4992;51.628;6.664;2023-06-22T08:47:18;15.05;;;13.65;;
9906;SDS011;4992;51.628;6.664;2023-06-22T08:49:46;14.35;;;12.98;;
9906;SDS011;4992;51.628;6.664;2023-06-22T08:52:12;15.32;;;13.73;;
9906;SDS011;4992;51.628;6.664;2023-06-22T08:54:38;14.20;;;12.98;;
9906;SDS011;4992;51.628;6.664;2023-06-22T08:57:04;13.45;;;12.25;;
9906;SDS011;4992;51.628;6.664;2023-06-22T08:59:30;13.90;;;12.68;;
9906;SDS011;4992;51.628;6.664;2023-06-22T09:01:56;14.18;;;12.95;;
9906;SDS011;4992;51.628;6.664;2023-06-22T09:04:22;13.98;;;12.57;;
9906;SDS011;4992;51.628;6.664;2023-06-22T09:06:48;14.95;;;13.52;;
9906;SDS011;4992;51.628;6.664;2023-06-22T09:09:15;14.13;;;12.73;;
9906;SDS011;4992;51.628;6.664;2023-06-22T09:11:41;14.75;;;12.73;;
9906;SDS011;4992;51.628;6.664;2023-06-22T09:14:07;14.35;;;12.88;;
9906;SDS011;4992;51.628;6.664;2023-06-22T09:16:33;14.93;;;13.55;;
9906;SDS011;4992;51.628;6.664;2023-06-22T09:18:59;14.20;;;12.98;;
9906;SDS011;4992;51.628;6.664;2023-06-22T09:21:25;14.93;;;13.52;;
9906;SDS011;4992;51.628;6.664;2023-06-22T09:23:51;15.52;;;14.10;;
9906;SDS011;4992;51.628;6.664;2023-06-22T09:26:18;15.30;;;13.70;;
9906;SDS011;4992;51.628;6.664;2023-06-22T09:28:44;15.18;;;13.88;;
9906;SDS011;4992;51.628;6.664;2023-06-22T09:31:10;14.32;;;13.13;;
9906;SDS011;4992;51.628;6.664;2023-06-22T09:33:36;14.75;;;13.40;;
9906;SDS011;4992;51.628;6.664;2023-06-22T09:36:05;14.50;;;13.27;;
9906;SDS011;4992;51.628;6.664;2023-06-22T09:38:38;14.98;;;13.57;;
9906;SDS011;4992;51.628;6.664;2023-06-22T09:41:05;15.02;;;13.77;;
9906;SDS011;4992;51.628;6.664;2023-06-22T09:43:31;15.35;;;13.90;;
9906;SDS011;4992;51.628;6.664;2023-06-22T09:45:59;15.38;;;13.88;;
9906;SDS011;4992;51.628;6.664;2023-06-22T09:48:27;16.27;;;13.85;;
9906;SDS011;4992;51.628;6.664;2023-06-22T09:50:53;16.15;;;14.60;;
9906;SDS011;4992;51.628;6.664;2023-06-22T09:53:19;14.57;;;13.18;;
9906;SDS011;4992;51.628;6.664;2023-06-22T09:55:45;15.93;;;14.52;;
9906;SDS011;4992;51.628;6.664;2023-06-22T09:58:11;16.17;;;14.68;;
9906;SDS011;4992;51.628;6.664;2023-06-22T10:00:37;15.43;;;14.05;;
9906;SDS011;4992;51.628;6.664;2023-06-22T10:03:03;15.07;;;13.77;;
9906;SDS011;4992;51.628;6.664;2023-06-22T10:05:29;16.15;;;14.70;;
9906;SDS011;4992;51.628;6.664;2023-06-22T10:07:55;16.58;;;14.95;;
9906;SDS011;4992;51.628;6.664;2023-06-22T10:10:21;15.52;;;13.98;;
9906;SDS011;4992;51.628;6.664;2023-06-22T10:12:47;16.40;;;14.68;;
9906;SDS011;4992;51.628;6.664;2023-06-22T10:15:14;16.40;;;14.73;;
9906;SDS011;4992;51.628;6.664;2023-06-22T10:17:40;15.80;;;14.30;;
9906;SDS011;4992;51.628;6.664;2023-06-22T10:20:06;15.23;;;13.90;;
9906;SDS011;4992;51.628;6.664;2023-06-22T10:22:39;16.45;;;14.95;;
9906;SDS011;4992;51.628;6.664;2023-06-22T10:25:05;16.88;;;15.40;;
9906;SDS011;4992;51.628;6.664;2023-06-22T10:27:31;17.23;;;15.60;;
9906;SDS011;4992;51.628;6.664;2023-06-22T10:29:57;18.02;;;16.17;;
9906;SDS011;4992;51.628;6.664;2023-06-22T10:32:23;17.63;;;16.00;;
9906;SDS011;4992;51.628;6.664;2023-06-22T10:34:49;18.52;;;16.90;;
9906;SDS011;4992;51.628;6.664;2023-06-22T10:37:15;17.55;;;16.05;;
9906;SDS011;4992;51.628;6.664;2023-06-22T10:39:41;18.35;;;16.38;;
9906;SDS011;4992;51.628;6.664;2023-06-22T10:42:07;17.45;;;15.70;;
9906;SDS011;4992;51.628;6.664;2023-06-22T10:44:33;17.80;;;16.20;;
9906;SDS011;4992;51.628;6.664;2023-06-22T10:46:59;17.20;;;15.60;;
9906;SDS011;4992;51.628;6.664;2023-06-22T10:49:25;17.60;;;15.90;;
9906;SDS011;4992;51.628;6.664;2023-06-22T10:51:51;17.95;;;16.35;;
9906;SDS011;4992;51.628;6.664;2023-06-22T10:54:17;17.60;;;15.80;;
9906;SDS011;4992;51.628;6.664;2023-06-22T10:56:44;18.27;;;16.45;;
9906;SDS011;4992;51.628;6.664;2023-06-22T10:59:10;18.10;;;16.50;;
9906;SDS011;4992;51.628;6.664;2023-06-22T11:01:36;19.27;;;15.82;;
9906;SDS011;4992;51.628;6.664;2023-06-22T11:04:02;18.27;;;16.58;;
9906;SDS011;4992;51.628;6.664;2023-06-22T11:06:29;17.27;;;15.80;;
9906;SDS011;4992;51.628;6.664;2023-06-22T11:08:55;17.65;;;15.95;;
9906;SDS011;4992;51.628;6.664;2023-06-22T11:11:21;16.75;;;15.25;;
9906;SDS011;4992;51.628;6.664;2023-06-22T11:13:47;17.15;;;15.52;;
9906;SDS011;4992;51.628;6.664;2023-06-22T11:16:13;17.88;;;16.13;;
9906;SDS011;4992;51.628;6.664;2023-06-22T11:18:39;17.40;;;15.77;;
9906;SDS011;4992;51.628;6.664;2023-06-22T11:21:05;16.63;;;15.13;;
9906;SDS011;4992;51.628;6.664;2023-06-22T11:23:31;15.63;;;14.23;;
9906;SDS011;4992;51.628;6.664;2023-06-22T11:25:56;15.85;;;14.50;;
9906;SDS011;4992;51.628;6.664;2023-06-22T11:28:23;16.23;;;14.65;;
9906;SDS011;4992;51.628;6.664;2023-06-22T11:30:48;16.30;;;14.80;;
9906;SDS011;4992;51.628;6.664;2023-06-22T11:33:14;17.17;;;15.45;;
9906;SDS011;4992;51.628;6.664;2023-06-22T11:35:40;17.10;;;15.38;;
9906;SDS011;4992;51.628;6.664;2023-06-22T11:38:06;21.80;;;15.82;;
9906;SDS011;4992;51.628;6.664;2023-06-22T11:40:32;17.70;;;16.15;;
9906;SDS011;4992;51.628;6.664;2023-06-22T11:42:58;17.52;;;15.77;;
9906;SDS011;4992;51.628;6.664;2023-06-22T11:45:24;17.95;;;16.17;;
9906;SDS011;4992;51.628;6.664;2023-06-22T11:47:50;17.90;;;16.30;;
9906;SDS011;4992;51.628;6.664;2023-06-22T11:50:16;19.17;;;17.27;;
9906;SDS011;4992;51.628;6.664;2023-06-22T11:52:42;18.77;;;16.88;;
9906;SDS011;4992;51.628;6.664;2023-06-22T11:55:08;20.20;;;18.10;;
9906;SDS011;4992;51.628;6.664;2023-06-22T11:57:38;19.90;;;18.02;;
9906;SDS011;4992;51.628;6.664;2023-06-22T12:00:04;18.77;;;17.08;;
9906;SDS011;4992;51.628;6.664;2023-06-22T12:02:41;21.45;;;18.80;;
9906;SDS011;4992;51.628;6.664;2023-06-22T12:05:07;20.98;;;19.08;;
9906;SDS011;4992;51.628;6.664;2023-06-22T12:07:33;24.02;;;21.63;;
9906;SDS011;4992;51.628;6.664;2023-06-22T12:09:59;21.55;;;19.45;;
9906;SDS011;4992;51.628;6.664;2023-06-22T12:12:26;21.25;;;19.42;;
9906;SDS011;4992;51.628;6.664;2023-06-22T12:14:52;23.83;;;21.70;;
9906;SDS011;4992;51.628;6.664;2023-06-22T12:17:18;23.73;;;21.45;;
9906;SDS011;4992;51.628;6.664;2023-06-22T12:19:43;25.17;;;22.73;;
9906;SDS011;4992;51.628;6.664;2023-06-22T12:22:09;23.67;;;21.60;;
9906;SDS011;4992;51.628;6.664;2023-06-22T12:24:35;30.57;;;27.87;;
9906;SDS011;4992;51.628;6.664;2023-06-22T12:27:01;27.17;;;24.80;;
9906;SDS011;4992;51.628;6.664;2023-06-22T12:29:28;27.77;;;25.17;;
9906;SDS011;4992;51.628;6.664;2023-06-22T12:31:54;27.85;;;25.25;;
9906;SDS011;4992;51.628;6.664;2023-06-22T12:34:20;29.92;;;27.20;;
9906;SDS011;4992;51.628;6.664;2023-06-22T12:36:46;31.55;;;28.75;;
9906;SDS011;4992;51.628;6.664;2023-06-22T12:39:13;29.20;;;26.60;;
9906;SDS011;4992;51.628;6.664;2023-06-22T12:41:39;28.48;;;25.35;;
9906;SDS011;4992;51.628;6.664;2023-06-22T12:44:05;31.02;;;28.27;;
9906;SDS011;4992;51.628;6.664;2023-06-22T12:46:31;28.05;;;25.60;;
9906;SDS011;4992;51.628;6.664;2023-06-22T12:49:02;28.15;;;25.45;;
9906;SDS011;4992;51.628;6.664;2023-06-22T12:51:29;28.30;;;25.85;;
9906;SDS011;4992;51.628;6.664;2023-06-22T12:53:55;26.23;;;23.88;;
9906;SDS011;4992;51.628;6.664;2023-06-22T12:56:21;28.17;;;25.77;;
9906;SDS011;4992;51.628;6.664;2023-06-22T12:58:47;26.98;;;24.52;;
9906;SDS011;4992;51.628;6.664;2023-06-22T13:01:13;27.45;;;24.85;;
9906;SDS011;4992;51.628;6.664;2023-06-22T13:03:39;26.75;;;24.40;;
9906;SDS011;4992;51.628;6.664;2023-06-22T13:06:05;26.02;;;23.83;;
9906;SDS011;4992;51.628;6.664;2023-06-22T13:08:31;26.33;;;24.13;;
9906;SDS011;4992;51.628;6.664;2023-06-22T13:10:57;27.60;;;24.92;;
9906;SDS011;4992;51.628;6.664;2023-06-22T13:13:23;28.17;;;25.67;;
9906;SDS011;4992;51.628;6.664;2023-06-22T13:15:50;26.55;;;24.13;;
9906;SDS011;4992;51.628;6.664;2023-06-22T13:18:17;26.10;;;23.70;;
9906;SDS011;4992;51.628;6.664;2023-06-22T13:20:43;25.63;;;23.48;;
9906;SDS011;4992;51.628;6.664;2023-06-22T13:23:10;25.90;;;23.55;;
9906;SDS011;4992;51.628;6.664;2023-06-22T13:25:36;25.15;;;22.98;;
9906;SDS011;4992;51.628;6.664;2023-06-22T13:28:02;23.63;;;21.42;;
9906;SDS011;4992;51.628;6.664;2023-06-22T13:30:28;26.48;;;24.05;;
9906;SDS011;4992;51.628;6.664;2023-06-22T13:32:55;23.75;;;21.48;;
9906;SDS011;4992;51.628;6.664;2023-06-22T13:35:21;23.10;;;21.10;;
9906;SDS011;4992;51.628;6.664;2023-06-22T13:37:47;22.35;;;20.33;;
9906;SDS011;4992;51.628;6.664;2023-06-22T13:40:13;23.45;;;21.45;;
9906;SDS011;4992;51.628;6.664;2023-06-22T13:42:39;22.40;;;20.20;;
9906;SDS011;4992;51.628;6.664;2023-06-22T13:45:06;21.92;;;19.98;;
9906;SDS011;4992;51.628;6.664;2023-06-22T13:47:32;23.58;;;21.58;;
9906;SDS011;4992;51.628;6.664;2023-06-22T13:49:58;23.73;;;21.65;;
9906;SDS011;4992;51.628;6.664;2023-06-22T13:52:24;23.63;;;21.55;;
9906;SDS011;4992;51.628;6.664;2023-06-22T13:54:50;22.30;;;20.40;;
9906;SDS011;4992;51.628;6.664;2023-06-22T13:57:16;23.10;;;21.02;;
9906;SDS011;4992;51.628;6.664;2023-06-22T13:59:42;23.25;;;21.10;;
9906;SDS011;4992;51.628;6.664;2023-06-22T14:02:08;23.20;;;21.02;;
9906;SDS011;4992;51.628;6.664;2023-06-22T14:04:34;23.75;;;21.58;;
9906;SDS011;4992;51.628;6.664;2023-06-22T14:07:00;23.63;;;21.30;;
9906;SDS011;4992;51.628;6.664;2023-06-22T14:09:26;24.27;;;22.10;;
9906;SDS011;4992;51.628;6.664;2023-06-22T14:11:53;25.48;;;23.17;;
9906;SDS011;4992;51.628;6.664;2023-06-22T14:14:20;25.42;;;23.13;;
9906;SDS011;4992;51.628;6.664;2023-06-22T14:16:46;25.23;;;22.80;;
9906;SDS011;4992;51.628;6.664;2023-06-22T14:19:14;27.65;;;24.75;;
9906;SDS011;4992;51.628;6.664;2023-06-22T14:21:40;24.77;;;22.60;;
9906;SDS011;4992;51.628;6.664;2023-06-22T14:24:06;25.92;;;23.33;;
9906;SDS011;4992;51.628;6.664;2023-06-22T14:26:32;26.13;;;23.80;;
9906;SDS011;4992;51.628;6.664;2023-06-22T14:28:58;26.15;;;23.63;;
9906;SDS011;4992;51.628;6.664;2023-06-22T14:31:24;26.77;;;24.25;;
9906;SDS011;4992;51.628;6.664;2023-06-22T14:33:50;25.27;;;23.08;;
9906;SDS011;4992;51.628;6.664;2023-06-22T14:36:16;24.92;;;22.63;;
9906;SDS011;4992;51.628;6.664;2023-06-22T14:38:42;23.48;;;21.38;;
9906;SDS011;4992;51.628;6.664;2023-06-22T14:41:09;23.45;;;21.35;;
9906;SDS011;4992;51.628;6.664;2023-06-22T14:43:35;24.08;;;21.85;;
9906;SDS011;4992;51.628;6.664;2023-06-22T14:46:01;23.52;;;21.52;;
9906;SDS011;4992;51.628;6.664;2023-06-22T14:48:27;24.00;;;21.60;;
9906;SDS011;4992;51.628;6.664;2023-06-22T14:50:53;23.02;;;20.85;;
9906;SDS011;4992;51.628;6.664;2023-06-22T14:53:19;22.52;;;20.48;;
9906;SDS011;4992;51.628;6.664;2023-06-22T14:55:45;22.45;;;20.20;;
9906;SDS011;4992;51.628;6.664;2023-06-22T14:58:11;21.83;;;19.85;;
9906;SDS011;4992;51.628;6.664;2023-06-22T15:00:37;21.98;;;20.00;;
9906;SDS011;4992;51.628;6.664;2023-06-22T15:03:03;21.58;;;19.67;;
9906;SDS011;4992;51.628;6.664;2023-06-22T15:05:31;21.95;;;19.83;;
9906;SDS011;4992;51.628;6.664;2023-06-22T15:07:57;21.45;;;19.50;;
9906;SDS011;4992;51.628;6.664;2023-06-22T15:10:23;21.38;;;19.38;;
9906;SDS011;4992;51.628;6.664;2023-06-22T15:12:49;22.42;;;20.23;;